Lower Matecumbe Key, Florida
Current Conditions -  °F | °C
As of 6:53 AM on Thursday 27 Nov 2014 (Local Time) from KMTH Reporting Station
Clear Clear  
Wind Chill: 61°   Ceiling: Unl
Heat Index: 61°   Visibility: 10mi
Dew Point: 56°   Wind: 15mph
Humidity: 83%   Direction: 360°N
Pressure: 30.23"   Gusts: 24mph
Location:  24.8649°N, 80.7192°W
Report Text: KMTH 271153Z AUTO 36013G21KT 10SM CLR 16/13 A3023 RMK AO2 SLP235 70001 T01610133 10172 20156 53016
Loading
Personal Weather Stations






























Interactive Weather Map New forecast layout! Learn more

10-Day Weather Forecast

Advertisements
Track Severe Weather on mobile